Time;durP1;ratioP1;P1;durP2;ratioP2;P2;SDS_P1;SDS_P2;PMS_P1;PMS_P2;Temp;Humidity;BMP_temperature;BMP_pressure;BME280_temperature;BME280_humidity;BME280_pressure;Samples;Min_cycle;Max_cycle;Signal;HPM_P1;HPM_P2
2022/02/13 00:01:35;;;;;;;11.37;8.37;;;;;;;;;;2615177;47;20467;-78
2022/02/13 00:04:02;;;;;;;14.40;8.87;;;;;;;;;;2615140;39;21244;-78
2022/02/13 00:06:28;;;;;;;9.90;7.90;;;;;;;;;;2614961;54;20423;-78
2022/02/13 00:08:55;;;;;;;7.90;7.20;;;;;;;;;;2615083;47;20423;-77
2022/02/13 00:11:23;;;;;;;9.57;6.57;;;;;;;;;;2615817;39;20866;-77
2022/02/13 00:13:52;;;;;;;8.17;6.93;;;;;;;;;;2614318;54;20502;-78
2022/02/13 00:16:18;;;;;;;9.13;6.47;;;;;;;;;;2615155;54;20972;-78
2022/02/13 00:18:45;;;;;;;8.00;6.03;;;;;;;;;;2615099;54;21045;-77
2022/02/13 00:21:12;;;;;;;8.87;7.07;;;;;;;;;;2615153;47;20967;-77
2022/02/13 00:23:39;;;;;;;6.80;6.10;;;;;;;;;;2614790;47;20428;-78
2022/02/13 00:26:06;;;;;;;7.90;6.07;;;;;;;;;;2614828;47;20433;-77
2022/02/13 00:28:36;;;;;;;10.63;6.33;;;;;;;;;;2614786;54;20430;-77
2022/02/13 00:31:02;;;;;;;7.27;5.93;;;;;;;;;;2614642;47;20446;-77
2022/02/13 00:33:32;;;;;;;6.80;6.20;;;;;;;;;;2614418;54;20403;-81
2022/02/13 00:35:58;;;;;;;9.20;7.23;;;;;;;;;;2615070;47;20443;-78
2022/02/13 00:38:26;;;;;;;7.40;6.40;;;;;;;;;;2613957;54;20406;-78
2022/02/13 00:40:52;;;;;;;7.67;6.03;;;;;;;;;;2615126;54;20523;-78
2022/02/13 00:43:20;;;;;;;9.10;7.00;;;;;;;;;;2614405;54;20416;-77
2022/02/13 00:45:46;;;;;;;8.17;7.37;;;;;;;;;;2614412;47;20436;-78
2022/02/13 00:48:12;;;;;;;8.10;7.03;;;;;;;;;;2614846;47;20963;-77
2022/02/13 00:50:40;;;;;;;6.90;6.20;;;;;;;;;;2614720;54;20451;-77
2022/02/13 00:53:07;;;;;;;9.90;6.97;;;;;;;;;;2614897;47;20427;-77
2022/02/13 00:55:34;;;;;;;7.40;5.90;;;;;;;;;;2615017;54;20503;-77
2022/02/13 00:58:00;;;;;;;7.00;6.40;;;;;;;;;;2614751;47;20980;-77
2022/02/13 01:00:27;;;;;;;14.47;6.40;;;;;;;;;;2615073;54;20419;-77
2022/02/13 01:02:54;;;;;;;8.13;7.17;;;;;;;;;;2614997;47;20455;-78
2022/02/13 01:05:21;;;;;;;7.30;6.37;;;;;;;;;;2614705;47;20423;-77
2022/02/13 01:07:49;;;;;;;10.37;6.43;;;;;;;;;;2614610;47;20414;-77
2022/02/13 01:10:15;;;;;;;9.60;6.43;;;;;;;;;;2614717;54;20415;-78
2022/02/13 01:12:41;;;;;;;9.10;6.33;;;;;;;;;;2614812;54;20435;-78
2022/02/13 01:15:07;;;;;;;10.50;7.07;;;;;;;;;;2614614;47;20956;-78
2022/02/13 01:17:35;;;;;;;7.90;6.50;;;;;;;;;;2614339;54;20420;-77
2022/02/13 01:20:02;;;;;;;7.53;6.03;;;;;;;;;;2615367;54;20955;-77
2022/02/13 01:22:28;;;;;;;8.97;6.90;;;;;;;;;;2614530;47;20448;-77
2022/02/13 01:24:54;;;;;;;10.97;6.73;;;;;;;;;;2613838;47;20955;-77
2022/02/13 01:27:20;;;;;;;18.00;6.43;;;;;;;;;;2614771;54;20947;-79
2022/02/13 01:29:46;;;;;;;6.47;5.87;;;;;;;;;;2614534;54;20486;-77
2022/02/13 01:32:12;;;;;;;6.27;5.37;;;;;;;;;;2613669;54;20423;-78
2022/02/13 01:34:39;;;;;;;11.33;6.60;;;;;;;;;;2614708;47;20426;-76
2022/02/13 01:37:05;;;;;;;7.53;6.83;;;;;;;;;;2614275;46;20464;-79
2022/02/13 01:39:32;;;;;;;6.50;6.00;;;;;;;;;;2614528;46;20482;-77
2022/02/13 01:41:58;;;;;;;9.20;7.33;;;;;;;;;;2614193;47;20943;-78
2022/02/13 01:44:29;;;;;;;6.80;5.80;;;;;;;;;;2613739;47;20403;-78
2022/02/13 01:46:55;;;;;;;7.83;6.93;;;;;;;;;;2614503;39;20779;-78
2022/02/13 01:49:23;;;;;;;10.20;8.07;;;;;;;;;;2613788;47;20450;-78
2022/02/13 01:51:50;;;;;;;7.80;7.00;;;;;;;;;;2614582;47;20451;-78
2022/02/13 01:54:16;;;;;;;8.73;7.83;;;;;;;;;;2614131;54;20439;-77
2022/02/13 01:56:43;;;;;;;9.00;7.00;;;;;;;;;;2614385;54;20446;-77
2022/02/13 01:59:11;;;;;;;8.60;7.10;;;;;;;;;;2614073;47;20419;-78
2022/02/13 02:01:38;;;;;;;13.40;6.70;;;;;;;;;;2614429;39;21254;-77
2022/02/13 02:04:05;;;;;;;7.57;6.87;;;;;;;;;;2613964;54;21161;-77
2022/02/13 02:06:32;;;;;;;10.07;7.40;;;;;;;;;;2614863;39;21265;-77
2022/02/13 02:08:58;;;;;;;8.50;7.30;;;;;;;;;;2613813;54;20399;-77
2022/02/13 02:11:24;;;;;;;12.43;6.77;;;;;;;;;;2613738;54;20511;-79
2022/02/13 02:13:52;;;;;;;8.80;6.93;;;;;;;;;;2614799;39;21029;-77
2022/02/13 02:16:18;;;;;;;8.00;6.63;;;;;;;;;;2615248;54;21054;-78
2022/02/13 02:18:45;;;;;;;8.07;6.70;;;;;;;;;;2614941;54;20969;-78
2022/02/13 02:21:12;;;;;;;14.83;8.37;;;;;;;;;;2615321;47;20439;-78
2022/02/13 02:23:39;;;;;;;10.97;6.93;;;;;;;;;;2615064;46;20551;-77
2022/02/13 02:26:06;;;;;;;10.10;6.80;;;;;;;;;;2614536;47;21003;-76
2022/02/13 02:28:32;;;;;;;7.50;6.73;;;;;;;;;;2614516;54;20439;-76
2022/02/13 02:30:58;;;;;;;11.53;6.80;;;;;;;;;;2615300;39;20865;-77
2022/02/13 02:33:27;;;;;;;10.27;7.33;;;;;;;;;;2615253;39;20893;-78
2022/02/13 02:35:53;;;;;;;7.80;7.03;;;;;;;;;;2614605;47;21432;-77
2022/02/13 02:38:21;;;;;;;9.80;7.30;;;;;;;;;;2614564;47;20431;-78
2022/02/13 02:40:47;;;;;;;14.53;7.53;;;;;;;;;;2615011;54;20467;-78
2022/02/13 02:43:13;;;;;;;11.00;7.37;;;;;;;;;;2615394;39;21132;-78
2022/02/13 02:45:39;;;;;;;7.17;6.57;;;;;;;;;;2614858;39;20897;-77
2022/02/13 02:48:06;;;;;;;9.43;7.20;;;;;;;;;;2615433;54;20443;-78
2022/02/13 02:50:32;;;;;;;8.00;6.93;;;;;;;;;;2614951;54;20426;-78
2022/02/13 02:52:58;;;;;;;18.93;7.70;;;;;;;;;;2614006;51;20418;-78
2022/02/13 02:55:24;;;;;;;10.27;7.83;;;;;;;;;;2614622;54;20407;-79
2022/02/13 02:57:51;;;;;;;8.00;7.20;;;;;;;;;;2614378;47;20422;-78
2022/02/13 03:00:18;;;;;;;8.47;6.83;;;;;;;;;;2615102;54;20423;-78
2022/02/13 03:02:44;;;;;;;7.80;7.00;;;;;;;;;;2614639;54;20423;-78
2022/02/13 03:05:10;;;;;;;7.77;7.10;;;;;;;;;;2614946;54;20427;-78
2022/02/13 03:07:36;;;;;;;7.10;6.50;;;;;;;;;;2614368;54;20406;-77
2022/02/13 03:10:04;;;;;;;7.33;6.63;;;;;;;;;;2614462;47;20446;-78
2022/02/13 03:12:32;;;;;;;8.90;6.93;;;;;;;;;;2614956;47;20391;-77
2022/02/13 03:14:59;;;;;;;9.40;6.80;;;;;;;;;;2614805;39;20698;-78
2022/02/13 03:17:25;;;;;;;12.00;6.40;;;;;;;;;;2614798;54;20430;-78
2022/02/13 03:19:51;;;;;;;7.80;7.10;;;;;;;;;;2613708;47;20422;-78
2022/02/13 03:22:17;;;;;;;9.37;7.47;;;;;;;;;;2615780;54;20416;-78
2022/02/13 03:24:43;;;;;;;8.50;7.10;;;;;;;;;;2614115;46;20437;-78
2022/02/13 03:27:11;;;;;;;11.97;7.20;;;;;;;;;;2614984;54;20425;-79
2022/02/13 03:29:37;;;;;;;8.90;7.00;;;;;;;;;;2615510;39;20656;-78
2022/02/13 03:32:03;;;;;;;7.87;6.50;;;;;;;;;;2614568;47;20430;-78
2022/02/13 03:34:29;;;;;;;8.73;6.33;;;;;;;;;;2614856;54;20423;-79
2022/02/13 03:36:55;;;;;;;9.70;6.90;;;;;;;;;;2614551;50;20953;-78
2022/02/13 03:39:23;;;;;;;9.67;6.90;;;;;;;;;;2614915;46;20434;-76
2022/02/13 03:41:49;;;;;;;9.13;6.77;;;;;;;;;;2614777;51;20411;-78
2022/02/13 03:44:15;;;;;;;7.87;6.60;;;;;;;;;;2615033;39;20788;-78
2022/02/13 03:46:43;;;;;;;7.13;6.30;;;;;;;;;;2614634;54;20493;-78
2022/02/13 03:49:09;;;;;;;8.00;6.67;;;;;;;;;;2614507;54;20420;-77
2022/02/13 03:51:35;;;;;;;7.07;6.40;;;;;;;;;;2614119;47;20443;-77
2022/02/13 03:54:04;;;;;;;9.03;6.80;;;;;;;;;;2614168;47;20494;-77
2022/02/13 03:56:30;;;;;;;7.03;6.00;;;;;;;;;;2614669;54;20399;-77
2022/02/13 03:58:56;;;;;;;5.80;5.30;;;;;;;;;;2615483;39;20479;-78
2022/02/13 04:01:22;;;;;;;7.30;6.30;;;;;;;;;;2615261;39;20822;-77
2022/02/13 04:03:50;;;;;;;8.10;6.33;;;;;;;;;;2615043;39;20841;-77
2022/02/13 04:06:16;;;;;;;9.37;6.17;;;;;;;;;;2614624;54;20531;-77
2022/02/13 04:08:42;;;;;;;6.60;6.00;;;;;;;;;;2614281;47;20463;-78
2022/02/13 04:11:08;;;;;;;7.70;6.40;;;;;;;;;;2614678;54;20435;-77
2022/02/13 04:13:35;;;;;;;11.20;6.17;;;;;;;;;;2613989;47;20421;-78
2022/02/13 04:16:01;;;;;;;7.23;6.47;;;;;;;;;;2614265;54;20424;-78
2022/02/13 04:18:27;;;;;;;7.70;7.00;;;;;;;;;;2614849;54;21177;-78
2022/02/13 04:20:54;;;;;;;12.60;6.80;;;;;;;;;;2615769;39;20906;-78
2022/02/13 04:23:21;;;;;;;6.90;6.17;;;;;;;;;;2614319;47;20423;-78
2022/02/13 04:25:48;;;;;;;8.33;7.00;;;;;;;;;;2614908;54;20394;-78
2022/02/13 04:28:15;;;;;;;7.30;6.57;;;;;;;;;;2615037;54;20427;-77
2022/02/13 04:30:41;;;;;;;6.83;6.10;;;;;;;;;;2614450;47;21023;-77
2022/02/13 04:33:07;;;;;;;6.60;5.77;;;;;;;;;;2615221;54;20424;-77
2022/02/13 04:35:35;;;;;;;7.13;6.10;;;;;;;;;;2614303;54;20468;-77
2022/02/13 04:38:04;;;;;;;7.23;6.63;;;;;;;;;;2614698;54;20408;-78
2022/02/13 04:40:30;;;;;;;12.03;6.73;;;;;;;;;;2614546;47;20428;-78
2022/02/13 04:42:56;;;;;;;8.70;6.30;;;;;;;;;;2614242;54;20407;-78
2022/02/13 04:45:23;;;;;;;6.07;5.60;;;;;;;;;;2614815;46;20552;-78
2022/02/13 04:47:49;;;;;;;7.13;6.37;;;;;;;;;;2614656;39;20827;-78
2022/02/13 04:50:21;;;;;;;8.10;7.30;;;;;;;;;;2614778;54;20971;-78
2022/02/13 04:52:49;;;;;;;9.90;5.67;;;;;;;;;;2614448;54;21162;-78
2022/02/13 04:55:15;;;;;;;7.97;6.57;;;;;;;;;;2615376;54;20470;-78
2022/02/13 04:57:42;;;;;;;6.53;5.33;;;;;;;;;;2614134;51;20546;-78
2022/02/13 05:00:09;;;;;;;6.20;5.60;;;;;;;;;;2615365;54;20415;-77
2022/02/13 05:02:35;;;;;;;9.83;5.80;;;;;;;;;;2613874;47;20427;-77
2022/02/13 05:05:02;;;;;;;6.93;6.30;;;;;;;;;;2614635;47;20434;-78
2022/02/13 05:07:28;;;;;;;6.90;6.20;;;;;;;;;;2613663;49;20423;-77
2022/02/13 05:09:55;;;;;;;7.97;5.97;;;;;;;;;;2614262;54;20419;-77
2022/02/13 05:12:22;;;;;;;7.37;6.27;;;;;;;;;;2613982;49;20428;-78
2022/02/13 05:14:48;;;;;;;11.70;6.60;;;;;;;;;;2613825;54;21003;-77
2022/02/13 05:17:15;;;;;;;8.93;7.57;;;;;;;;;;2614199;54;20455;-77
2022/02/13 05:19:41;;;;;;;6.30;5.70;;;;;;;;;;2613975;54;20412;-78
2022/02/13 05:22:07;;;;;;;9.17;6.50;;;;;;;;;;2614887;54;20507;-78
2022/02/13 05:24:36;;;;;;;9.20;6.50;;;;;;;;;;2613926;54;20506;-78
2022/02/13 05:27:05;;;;;;;6.57;5.80;;;;;;;;;;2614451;47;20466;-78
2022/02/13 05:29:32;;;;;;;6.60;6.00;;;;;;;;;;2614303;54;21076;-78
2022/02/13 05:31:59;;;;;;;6.37;5.77;;;;;;;;;;2614878;54;20527;-79
2022/02/13 05:34:26;;;;;;;8.90;7.03;;;;;;;;;;2614306;54;20404;-78
2022/02/13 05:36:53;;;;;;;7.77;6.03;;;;;;;;;;2614219;54;20986;-78
2022/02/13 05:39:43;;;;;;;7.43;6.67;;;;;;;;;;2614297;54;20408;-78
2022/02/13 05:42:09;;;;;;;9.20;6.70;;;;;;;;;;2612987;47;21004;-78
2022/02/13 05:44:36;;;;;;;6.17;5.67;;;;;;;;;;2613234;54;20427;-78
2022/02/13 05:47:02;;;;;;;6.40;5.90;;;;;;;;;;2613248;47;20431;-78
2022/02/13 05:49:28;;;;;;;12.83;6.23;;;;;;;;;;2613916;39;20490;-77
2022/02/13 05:51:54;;;;;;;6.70;6.10;;;;;;;;;;2613508;54;20424;-77
2022/02/13 05:54:21;;;;;;;7.83;5.80;;;;;;;;;;2613967;47;20427;-77
2022/02/13 05:56:47;;;;;;;8.40;5.90;;;;;;;;;;2614478;54;20422;-78
2022/02/13 05:59:13;;;;;;;10.60;6.63;;;;;;;;;;2614644;54;20419;-78
2022/02/13 06:01:41;;;;;;;6.37;5.73;;;;;;;;;;2613788;54;20423;-77
2022/02/13 06:04:08;;;;;;;8.70;5.53;;;;;;;;;;2613677;54;20391;-78
2022/02/13 06:06:34;;;;;;;8.87;5.47;;;;;;;;;;2614384;54;20450;-77
2022/02/13 06:09:00;;;;;;;5.77;5.37;;;;;;;;;;2613953;54;20415;-78
2022/02/13 06:11:27;;;;;;;5.57;5.13;;;;;;;;;;2614267;47;20407;-78
2022/02/13 06:13:53;;;;;;;6.63;5.83;;;;;;;;;;2613760;47;20431;-78
2022/02/13 06:16:19;;;;;;;11.23;6.30;;;;;;;;;;2613718;47;20430;-77
2022/02/13 06:18:45;;;;;;;6.20;5.60;;;;;;;;;;2614233;54;20408;-78
2022/02/13 06:21:12;;;;;;;7.13;6.07;;;;;;;;;;2615173;47;21121;-76
2022/02/13 06:23:38;;;;;;;6.83;6.10;;;;;;;;;;2614239;54;20967;-78
2022/02/13 06:26:04;;;;;;;10.03;6.33;;;;;;;;;;2614866;54;20404;-79
2022/02/13 06:28:32;;;;;;;10.07;5.97;;;;;;;;;;2615764;54;20968;-77
2022/02/13 06:30:58;;;;;;;6.93;6.23;;;;;;;;;;2618818;47;20454;-77
2022/02/13 06:33:24;;;;;;;11.60;6.20;;;;;;;;;;2614720;54;20427;-78
2022/02/13 06:35:53;;;;;;;8.83;6.97;;;;;;;;;;2614709;54;20415;-78
2022/02/13 06:38:19;;;;;;;6.57;5.97;;;;;;;;;;2614732;54;20411;-78
2022/02/13 06:40:45;;;;;;;7.33;6.63;;;;;;;;;;2615324;39;20834;-78
2022/02/13 06:43:11;;;;;;;12.30;6.53;;;;;;;;;;2614445;54;20407;-78
2022/02/13 06:45:41;;;;;;;8.07;6.40;;;;;;;;;;2615099;54;20424;-78
2022/02/13 06:48:08;;;;;;;6.17;5.57;;;;;;;;;;2613949;47;20437;-78
2022/02/13 06:50:35;;;;;;;7.27;6.33;;;;;;;;;;2613670;54;20442;-78
2022/02/13 06:53:01;;;;;;;7.10;6.23;;;;;;;;;;2615250;39;20861;-78
2022/02/13 06:55:29;;;;;;;6.90;5.90;;;;;;;;;;2614777;47;20423;-78
2022/02/13 06:57:56;;;;;;;6.10;5.57;;;;;;;;;;2614695;54;20407;-78
2022/02/13 07:00:22;;;;;;;6.93;6.20;;;;;;;;;;2614640;54;20416;-78
2022/02/13 07:02:49;;;;;;;7.63;6.93;;;;;;;;;;2614899;39;20812;-77
2022/02/13 07:05:19;;;;;;;6.50;6.00;;;;;;;;;;2614496;47;21339;-79
2022/02/13 07:07:46;;;;;;;7.73;6.90;;;;;;;;;;2615022;47;20423;-78
2022/02/13 07:10:12;;;;;;;8.47;6.97;;;;;;;;;;2615995;54;20499;-77
2022/02/13 07:12:39;;;;;;;7.90;7.10;;;;;;;;;;2615022;47;20511;-78
2022/02/13 07:15:06;;;;;;;15.60;8.13;;;;;;;;;;2614775;54;21278;-78
2022/02/13 07:17:35;;;;;;;9.70;6.20;;;;;;;;;;2614181;47;20510;-78
2022/02/13 07:20:02;;;;;;;9.27;7.13;;;;;;;;;;2615008;47;21113;-78
2022/02/13 07:22:28;;;;;;;10.50;6.80;;;;;;;;;;2614634;39;20807;-78
2022/02/13 07:24:55;;;;;;;9.77;7.33;;;;;;;;;;2614990;47;20554;-77
2022/02/13 07:27:22;;;;;;;7.50;6.50;;;;;;;;;;2615381;54;21008;-78
2022/02/13 07:29:48;;;;;;;6.67;5.93;;;;;;;;;;2613932;47;20423;-78
2022/02/13 07:32:15;;;;;;;7.00;6.40;;;;;;;;;;2614851;54;20416;-78
2022/02/13 07:34:41;;;;;;;6.90;6.10;;;;;;;;;;2614018;47;20479;-77
2022/02/13 07:37:07;;;;;;;7.23;6.53;;;;;;;;;;2615238;39;21109;-77
2022/02/13 07:39:35;;;;;;;8.20;6.10;;;;;;;;;;2614109;54;20443;-79
2022/02/13 07:42:01;;;;;;;6.77;6.17;;;;;;;;;;2614223;54;20446;-78
2022/02/13 07:44:28;;;;;;;6.73;6.13;;;;;;;;;;2613628;47;20470;-79
2022/02/13 07:46:54;;;;;;;7.03;6.47;;;;;;;;;;2614502;54;20483;-79
2022/02/13 07:49:22;;;;;;;8.13;6.27;;;;;;;;;;2615143;54;20433;-78
2022/02/13 07:51:49;;;;;;;7.37;5.63;;;;;;;;;;2614337;54;20423;-78
2022/02/13 07:54:16;;;;;;;6.33;5.73;;;;;;;;;;2614620;46;20428;-79
2022/02/13 07:56:43;;;;;;;5.87;5.37;;;;;;;;;;2614806;54;20986;-79
2022/02/13 07:59:09;;;;;;;10.50;6.00;;;;;;;;;;2613966;47;20463;-77
2022/02/13 08:01:36;;;;;;;7.20;6.20;;;;;;;;;;2613565;47;20463;-79
2022/02/13 08:04:02;;;;;;;7.57;6.27;;;;;;;;;;2614428;39;20834;-78
2022/02/13 08:06:29;;;;;;;7.07;6.43;;;;;;;;;;2614243;47;20434;-79
2022/02/13 08:08:56;;;;;;;5.83;5.33;;;;;;;;;;2613478;47;20431;-79
2022/02/13 08:11:24;;;;;;;8.03;5.97;;;;;;;;;;2613999;54;20462;-79
2022/02/13 08:13:50;;;;;;;6.97;5.40;;;;;;;;;;2613799;47;20431;-79
2022/02/13 08:16:18;;;;;;;6.20;5.60;;;;;;;;;;2614115;54;20435;-78
2022/02/13 08:18:44;;;;;;;5.67;5.17;;;;;;;;;;2614226;54;20416;-78
2022/02/13 08:21:11;;;;;;;5.70;5.20;;;;;;;;;;2613840;54;20440;-78
2022/02/13 08:23:37;;;;;;;9.33;5.57;;;;;;;;;;2614606;39;21116;-78
2022/02/13 08:26:03;;;;;;;6.30;5.80;;;;;;;;;;2614657;54;20455;-79
2022/02/13 08:28:31;;;;;;;8.37;6.13;;;;;;;;;;2614081;54;20399;-79
2022/02/13 08:30:57;;;;;;;7.43;5.80;;;;;;;;;;2613996;47;20458;-79
2022/02/13 08:33:24;;;;;;;6.23;5.50;;;;;;;;;;2614377;39;20896;-78
2022/02/13 08:35:51;;;;;;;5.80;5.30;;;;;;;;;;2613757;39;20858;-78
2022/02/13 08:38:17;;;;;;;6.00;5.30;;;;;;;;;;2613108;54;21094;-78
2022/02/13 08:40:45;;;;;;;5.90;5.30;;;;;;;;;;2614009;54;20423;-78
2022/02/13 08:43:11;;;;;;;7.70;6.00;;;;;;;;;;2614178;47;21003;-78
2022/02/13 08:45:38;;;;;;;6.30;5.50;;;;;;;;;;2613939;47;20445;-78
2022/02/13 08:48:05;;;;;;;7.10;5.63;;;;;;;;;;2613491;48;20410;-78
2022/02/13 08:50:31;;;;;;;5.47;4.93;;;;;;;;;;2615000;54;20582;-78
2022/02/13 08:52:58;;;;;;;6.37;5.73;;;;;;;;;;2613327;54;20982;-79
2022/02/13 08:55:25;;;;;;;6.00;5.37;;;;;;;;;;2613483;54;20428;-78
2022/02/13 08:57:53;;;;;;;5.53;4.90;;;;;;;;;;2614091;47;20423;-77
2022/02/13 09:00:19;;;;;;;6.07;4.97;;;;;;;;;;2613553;54;20419;-78
2022/02/13 09:02:46;;;;;;;6.60;5.23;;;;;;;;;;2613762;54;20514;-78
2022/02/13 09:05:12;;;;;;;8.03;5.67;;;;;;;;;;2612468;47;20420;-77
2022/02/13 09:07:39;;;;;;;10.13;5.60;;;;;;;;;;2614632;39;21232;-78
2022/02/13 09:10:06;;;;;;;5.80;5.20;;;;;;;;;;2613425;54;20967;-78
2022/02/13 09:12:32;;;;;;;5.20;4.73;;;;;;;;;;2613593;54;20411;-78
2022/02/13 09:14:59;;;;;;;5.37;4.87;;;;;;;;;;2613958;54;20427;-79
2022/02/13 09:17:25;;;;;;;5.40;4.87;;;;;;;;;;2613797;47;20427;-78
2022/02/13 09:19:51;;;;;;;6.20;4.90;;;;;;;;;;2613321;54;20423;-78
2022/02/13 09:22:18;;;;;;;5.87;5.10;;;;;;;;;;2612760;54;20408;-77
2022/02/13 09:24:45;;;;;;;4.60;4.20;;;;;;;;;;2614216;54;20411;-78
2022/02/13 09:27:12;;;;;;;5.23;4.70;;;;;;;;;;2613455;54;20503;-77
2022/02/13 09:29:38;;;;;;;5.17;4.47;;;;;;;;;;2613940;47;20424;-79
2022/02/13 09:32:04;;;;;;;4.53;4.23;;;;;;;;;;2612953;51;20419;-78
2022/02/13 09:34:33;;;;;;;5.10;4.63;;;;;;;;;;2613253;54;20518;-78
2022/02/13 09:36:59;;;;;;;6.83;5.97;;;;;;;;;;2613832;54;20455;-78
2022/02/13 09:39:25;;;;;;;4.83;4.43;;;;;;;;;;2613474;39;20828;-77
2022/02/13 09:41:52;;;;;;;5.90;4.87;;;;;;;;;;2613561;47;20979;-78
2022/02/13 09:44:18;;;;;;;6.17;4.80;;;;;;;;;;2613189;54;20406;-78
2022/02/13 09:46:45;;;;;;;4.80;4.40;;;;;;;;;;2613668;47;20970;-77
2022/02/13 09:49:13;;;;;;;6.03;5.43;;;;;;;;;;2613191;54;20438;-79
2022/02/13 09:51:39;;;;;;;4.50;4.10;;;;;;;;;;2613360;54;21073;-80
2022/02/13 09:54:05;;;;;;;5.00;4.60;;;;;;;;;;2613438;54;20546;-77
2022/02/13 09:56:33;;;;;;;4.97;4.23;;;;;;;;;;2613788;54;20431;-77
2022/02/13 09:59:00;;;;;;;4.83;4.33;;;;;;;;;;2612992;54;20436;-78
2022/02/13 10:01:36;;;;;;;5.67;4.93;;;;;;;;;;2613235;47;20437;-77
2022/02/13 10:04:04;;;;;;;5.50;5.00;;;;;;;;;;2613084;54;20998;-78
2022/02/13 10:06:30;;;;;;;5.77;5.10;;;;;;;;;;2613531;54;20434;-80
2022/02/13 10:08:57;;;;;;;5.60;4.27;;;;;;;;;;2614400;54;20434;-79
2022/02/13 10:11:33;;;;;;;5.33;4.87;;;;;;;;;;2613913;54;20431;-78
2022/02/13 10:14:03;;;;;;;4.63;4.23;;;;;;;;;;2613426;54;20451;-77
2022/02/13 10:16:34;;;;;;;5.80;4.83;;;;;;;;;;2613981;54;20403;-78
2022/02/13 10:19:09;;;;;;;5.33;4.43;;;;;;;;;;2613979;54;20543;-79
2022/02/13 10:21:51;;;;;;;6.40;5.60;;;;;;;;;;2613249;54;20418;-79
2022/02/13 10:24:20;;;;;;;4.73;4.37;;;;;;;;;;2613134;47;20438;-79
2022/02/13 10:27:07;;;;;;;6.87;5.70;;;;;;;;;;2612803;54;20423;-78
2022/02/13 10:29:35;;;;;;;5.63;5.00;;;;;;;;;;2612161;47;20451;-77
2022/02/13 10:32:15;;;;;;;5.67;5.20;;;;;;;;;;2612410;47;20447;-77
2022/02/13 10:34:56;;;;;;;7.33;4.80;;;;;;;;;;2613593;54;20395;-77
2022/02/13 10:37:36;;;;;;;5.23;4.73;;;;;;;;;;2614784;39;21214;-78
2022/02/13 10:40:03;;;;;;;6.07;5.17;;;;;;;;;;2613438;54;20431;-77
2022/02/13 10:42:31;;;;;;;5.83;5.20;;;;;;;;;;2614556;54;20423;-78
2022/02/13 10:45:16;;;;;;;5.00;4.40;;;;;;;;;;2612725;47;20420;-77
2022/02/13 10:47:42;;;;;;;5.50;5.03;;;;;;;;;;2614093;39;20927;-78
2022/02/13 10:50:09;;;;;;;5.13;4.70;;;;;;;;;;2614139;47;20446;-78
2022/02/13 10:52:38;;;;;;;5.80;5.20;;;;;;;;;;2613606;47;20419;-77
2022/02/13 10:55:04;;;;;;;5.40;4.90;;;;;;;;;;2614209;39;20910;-78
2022/02/13 10:57:31;;;;;;;5.47;4.50;;;;;;;;;;2614663;54;20423;-78
2022/02/13 10:59:57;;;;;;;4.43;4.03;;;;;;;;;;2613936;47;20431;-78
2022/02/13 11:02:25;;;;;;;6.67;5.17;;;;;;;;;;2613644;54;20431;-78
2022/02/13 11:04:52;;;;;;;5.63;4.90;;;;;;;;;;2613334;47;20410;-77
2022/02/13 11:07:20;;;;;;;5.80;5.30;;;;;;;;;;2614737;54;20419;-79
2022/02/13 11:09:48;;;;;;;8.33;4.37;;;;;;;;;;2614445;39;20820;-78
2022/02/13 11:12:18;;;;;;;5.97;4.63;;;;;;;;;;2613591;54;20469;-79
2022/02/13 11:14:47;;;;;;;5.90;5.00;;;;;;;;;;2613826;54;20526;-77
2022/02/13 11:17:33;;;;;;;4.67;4.37;;;;;;;;;;2613296;54;20530;-78
2022/02/13 11:20:02;;;;;;;5.40;4.30;;;;;;;;;;2613989;47;20427;-77
2022/02/13 11:22:33;;;;;;;4.73;4.43;;;;;;;;;;2612965;54;20412;-78
2022/02/13 11:24:59;;;;;;;4.50;4.10;;;;;;;;;;2613632;46;20430;-79
2022/02/13 11:27:47;;;;;;;5.47;4.97;;;;;;;;;;2613440;54;20515;-79
2022/02/13 11:30:13;;;;;;;5.17;4.77;;;;;;;;;;2613723;54;20445;-79
2022/02/13 11:32:42;;;;;;;6.50;4.60;;;;;;;;;;2613441;54;20435;-78
2022/02/13 11:35:11;;;;;;;4.70;4.30;;;;;;;;;;2613680;47;20519;-78
2022/02/13 11:37:41;;;;;;;5.70;4.20;;;;;;;;;;2614106;46;20535;-78
2022/02/13 11:40:08;;;;;;;5.63;5.17;;;;;;;;;;2613757;47;20438;-78
2022/02/13 11:42:37;;;;;;;4.87;4.47;;;;;;;;;;2613417;47;20430;-78
2022/02/13 11:45:20;;;;;;;4.80;3.70;;;;;;;;;;2613459;54;20399;-78
2022/02/13 11:47:46;;;;;;;4.80;4.50;;;;;;;;;;2613542;54;20416;-78
2022/02/13 11:50:15;;;;;;;4.90;4.47;;;;;;;;;;2613895;47;20419;-78
2022/02/13 11:52:58;;;;;;;6.40;4.60;;;;;;;;;;2613975;54;20419;-78
2022/02/13 11:55:27;;;;;;;5.30;4.50;;;;;;;;;;2614234;47;20423;-77
2022/02/13 11:57:57;;;;;;;4.70;4.30;;;;;;;;;;2613024;47;20428;-78
2022/02/13 12:00:33;;;;;;;5.40;3.63;;;;;;;;;;2614399;54;20538;-78
2022/02/13 12:03:10;;;;;;;8.07;4.90;;;;;;;;;;2613758;54;20415;-78
2022/02/13 12:05:37;;;;;;;5.10;4.70;;;;;;;;;;2613530;54;20423;-79
2022/02/13 12:08:04;;;;;;;4.87;4.43;;;;;;;;;;2613587;54;20415;-79
2022/02/13 12:10:36;;;;;;;6.03;4.77;;;;;;;;;;2614022;54;20418;-78
2022/02/13 12:13:12;;;;;;;4.83;4.33;;;;;;;;;;2613424;54;20419;-79
2022/02/13 12:15:39;;;;;;;8.13;4.60;;;;;;;;;;2613783;54;20411;-78
2022/02/13 12:18:06;;;;;;;5.17;4.77;;;;;;;;;;2614783;39;20791;-77
2022/02/13 12:20:34;;;;;;;4.73;4.33;;;;;;;;;;2613420;47;20431;-80
2022/02/13 12:23:08;;;;;;;9.50;5.83;;;;;;;;;;2613166;47;20538;-77
2022/02/13 12:25:35;;;;;;;7.83;5.10;;;;;;;;;;2613397;52;20495;-77
2022/02/13 12:28:06;;;;;;;4.67;4.27;;;;;;;;;;2613790;54;20423;-78
2022/02/13 12:30:33;;;;;;;5.00;4.60;;;;;;;;;;2613640;39;20548;-79
2022/02/13 12:33:04;;;;;;;10.80;4.63;;;;;;;;;;2613587;46;20446;-78
2022/02/13 12:35:35;;;;;;;4.40;4.10;;;;;;;;;;2613954;54;20411;-78
2022/02/13 12:38:02;;;;;;;5.17;4.50;;;;;;;;;;2614015;54;21374;-78
2022/02/13 12:40:31;;;;;;;4.60;4.20;;;;;;;;;;2614720;54;20420;-78
2022/02/13 12:43:03;;;;;;;4.57;4.17;;;;;;;;;;2613658;54;20412;-79
2022/02/13 12:45:31;;;;;;;5.10;4.60;;;;;;;;;;2613855;54;20411;-78
2022/02/13 12:47:59;;;;;;;5.07;4.67;;;;;;;;;;2612961;47;20408;-79
2022/02/13 12:50:27;;;;;;;5.07;4.37;;;;;;;;;;2613687;54;20408;-79
2022/02/13 12:52:56;;;;;;;4.50;4.10;;;;;;;;;;2613274;39;20867;-79
2022/02/13 12:55:24;;;;;;;6.30;4.33;;;;;;;;;;2613529;47;20419;-79
2022/02/13 12:57:55;;;;;;;4.47;4.10;;;;;;;;;;2614026;54;21013;-78
2022/02/13 13:00:23;;;;;;;4.57;4.17;;;;;;;;;;2612975;54;20427;-78
2022/02/13 13:02:52;;;;;;;5.03;4.53;;;;;;;;;;2613813;54;20446;-79
2022/02/13 13:05:28;;;;;;;8.30;4.90;;;;;;;;;;2612999;54;20540;-78
2022/02/13 13:08:06;;;;;;;5.07;4.67;;;;;;;;;;2612937;47;20461;-79
2022/02/13 13:10:33;;;;;;;6.30;4.80;;;;;;;;;;2614189;39;20809;-79
2022/02/13 13:13:00;;;;;;;4.70;4.30;;;;;;;;;;2613075;47;20474;-77
2022/02/13 13:15:26;;;;;;;5.60;5.03;;;;;;;;;;2613232;54;20433;-78
2022/02/13 13:17:53;;;;;;;4.30;3.90;;;;;;;;;;2613176;54;20435;-78
2022/02/13 13:20:30;;;;;;;5.63;5.13;;;;;;;;;;2613354;54;20463;-78
2022/02/13 13:23:14;;;;;;;4.20;3.90;;;;;;;;;;2614042;54;20432;-77
2022/02/13 13:25:44;;;;;;;4.30;3.90;;;;;;;;;;2613980;54;20426;-78
2022/02/13 13:28:20;;;;;;;6.67;6.07;;;;;;;;;;2613784;54;20431;-78
2022/02/13 13:30:46;;;;;;;5.10;4.60;;;;;;;;;;2613221;47;20534;-78
2022/02/13 13:33:13;;;;;;;6.87;4.90;;;;;;;;;;2614301;54;20419;-77
2022/02/13 13:35:40;;;;;;;5.03;4.47;;;;;;;;;;2613369;54;20399;-78
2022/02/13 13:38:07;;;;;;;5.87;5.07;;;;;;;;;;2613466;54;20459;-79
2022/02/13 13:40:35;;;;;;;7.43;6.73;;;;;;;;;;2613532;54;20438;-77
2022/02/13 13:43:09;;;;;;;6.30;5.60;;;;;;;;;;2613208;47;20427;-77
2022/02/13 13:45:40;;;;;;;5.63;5.23;;;;;;;;;;2612606;54;20448;-78
2022/02/13 13:48:11;;;;;;;6.17;5.67;;;;;;;;;;2613491;54;20416;-79
2022/02/13 13:50:41;;;;;;;5.43;4.97;;;;;;;;;;2613093;54;20462;-77
2022/02/13 13:53:08;;;;;;;6.90;4.93;;;;;;;;;;2613843;39;20466;-78
2022/02/13 13:55:35;;;;;;;6.10;5.17;;;;;;;;;;2613082;47;20531;-77
2022/02/13 13:58:01;;;;;;;7.10;5.00;;;;;;;;;;2613754;47;20415;-78
2022/02/13 14:00:27;;;;;;;6.27;5.63;;;;;;;;;;2614543;39;21110;-78
2022/02/13 14:03:03;;;;;;;5.60;5.10;;;;;;;;;;2613013;47;20424;-77
2022/02/13 14:05:30;;;;;;;6.27;5.37;;;;;;;;;;2613826;54;20411;-77
2022/02/13 14:07:57;;;;;;;5.83;5.23;;;;;;;;;;2613448;54;20403;-78
2022/02/13 14:10:27;;;;;;;6.60;5.40;;;;;;;;;;2613864;47;20418;-77
2022/02/13 14:12:54;;;;;;;6.30;5.70;;;;;;;;;;2614032;47;20996;-78
2022/02/13 14:15:21;;;;;;;5.43;4.97;;;;;;;;;;2614150;54;20407;-78
2022/02/13 14:17:47;;;;;;;5.10;4.70;;;;;;;;;;2614775;54;20423;-78
2022/02/13 14:20:14;;;;;;;5.20;4.70;;;;;;;;;;2613671;54;20494;-79
2022/02/13 14:22:43;;;;;;;8.40;5.97;;;;;;;;;;2613643;54;20430;-78
2022/02/13 14:25:09;;;;;;;7.40;6.13;;;;;;;;;;2613666;47;20436;-78
2022/02/13 14:27:36;;;;;;;5.60;5.20;;;;;;;;;;2613487;54;20416;-78
2022/02/13 14:30:03;;;;;;;7.60;6.17;;;;;;;;;;2614272;46;20498;-78
2022/02/13 14:32:29;;;;;;;7.40;5.90;;;;;;;;;;2613838;47;20500;-78
2022/02/13 14:34:55;;;;;;;5.90;5.40;;;;;;;;;;2613111;46;20439;-78
2022/02/13 14:37:25;;;;;;;8.37;6.00;;;;;;;;;;2613917;47;20514;-79
2022/02/13 14:39:53;;;;;;;5.70;5.20;;;;;;;;;;2613329;54;20419;-78
2022/02/13 14:42:20;;;;;;;6.63;5.57;;;;;;;;;;2614409;54;20447;-78
2022/02/13 14:44:48;;;;;;;6.70;5.40;;;;;;;;;;2614404;39;20877;-78